createdAt,value
2022-10-25T00:00:07.809Z,13.3
2022-10-25T00:01:12.408Z,15.4
2022-10-25T00:02:27.317Z,15.1
2022-10-25T00:03:31.369Z,15
2022-10-25T00:04:35.917Z,15.5
2022-10-25T00:05:40.077Z,14.4
2022-10-25T00:06:44.736Z,14.3
2022-10-25T00:07:49.397Z,15.1
2022-10-25T00:08:53.828Z,14.3
2022-10-25T00:09:58.512Z,17.2
2022-10-25T00:11:02.641Z,15.3
2022-10-25T00:12:07.210Z,15.9
2022-10-25T00:13:11.923Z,17
2022-10-25T00:14:16.345Z,16.1
2022-10-25T00:15:20.388Z,15.8
2022-10-25T00:16:24.604Z,15.9
2022-10-25T00:17:29.185Z,17.3
2022-10-25T00:18:33.787Z,18.2
2022-10-25T00:19:38.480Z,17
2022-10-25T00:20:42.909Z,18
2022-10-25T00:21:47.033Z,20.5
2022-10-25T00:22:51.681Z,17.9
2022-10-25T00:23:56.162Z,17.2
2022-10-25T00:25:00.408Z,17.5
2022-10-25T00:26:04.918Z,17.4
2022-10-25T00:27:08.937Z,18.5
2022-10-25T00:28:13.156Z,19
2022-10-25T00:29:17.850Z,18.8
2022-10-25T00:30:22.281Z,19
2022-10-25T00:31:26.568Z,18.7
2022-10-25T00:32:30.959Z,19.7
2022-10-25T00:33:35.045Z,18.8
2022-10-25T00:34:39.209Z,20
2022-10-25T00:35:43.351Z,19.5
2022-10-25T00:36:47.416Z,16.7
2022-10-25T00:37:51.510Z,19.4
2022-10-25T00:38:56.133Z,18.2
2022-10-25T00:40:00.257Z,17.4
2022-10-25T00:41:04.925Z,16.2
2022-10-25T00:42:09.539Z,16.7
2022-10-25T00:43:14.121Z,17
2022-10-25T00:44:28.807Z,17.7
2022-10-25T00:45:35.925Z,19.6
2022-10-25T00:46:40.006Z,17.8
2022-10-25T00:47:44.563Z,18.8
2022-10-25T00:48:48.777Z,16.5
2022-10-25T00:50:03.568Z,16.5
2022-10-25T00:51:15.828Z,17.5
2022-10-25T00:52:20.380Z,16.2
2022-10-25T00:53:25.032Z,16.2
2022-10-25T00:54:29.554Z,18.8
2022-10-25T00:55:36.806Z,20.8
2022-10-25T00:56:41.376Z,19.1
2022-10-25T00:57:46.190Z,20.8
2022-10-25T00:58:50.528Z,17.3
2022-10-25T00:59:55.145Z,23.7
2022-10-25T01:00:59.717Z,20.1
2022-10-25T01:02:04.453Z,19.5
2022-10-25T01:03:08.932Z,19.2
2022-10-25T01:04:13.418Z,20.6
2022-10-25T01:05:17.500Z,19.7
2022-10-25T01:06:21.648Z,19.1
2022-10-25T01:07:28.823Z,19.9
2022-10-25T01:08:33.368Z,20.7
2022-10-25T01:09:37.506Z,21
2022-10-25T01:10:42.088Z,17.4
2022-10-25T01:11:46.224Z,17.8
2022-10-25T01:12:51.393Z,18.5
2022-10-25T01:13:55.404Z,19.5
2022-10-25T01:14:59.425Z,19.5
2022-10-25T01:16:03.594Z,18.7
2022-10-25T01:17:13.249Z,17.6
2022-10-25T01:18:25.956Z,16.1
2022-10-25T01:19:38.178Z,17.4
2022-10-25T01:20:53.076Z,17.7
2022-10-25T01:22:02.803Z,17.3
2022-10-25T01:23:07.456Z,18.2
2022-10-25T01:24:20.089Z,17.9
2022-10-25T01:25:29.754Z,16.2
2022-10-25T01:26:41.896Z,17.7
2022-10-25T01:27:51.579Z,17.2
2022-10-25T01:29:00.782Z,16.4
2022-10-25T01:30:13.044Z,18.5
2022-10-25T01:31:23.364Z,16.8
2022-10-25T01:32:27.840Z,19.2
2022-10-25T01:33:42.541Z,17
2022-10-25T01:34:54.928Z,16
2022-10-25T01:36:09.665Z,20.2
2022-10-25T01:37:14.249Z,19.5
2022-10-25T01:38:18.768Z,18.3
2022-10-25T01:39:33.588Z,16.2
2022-10-25T01:40:45.769Z,17.5
2022-10-25T01:41:49.912Z,17
2022-10-25T01:43:04.792Z,17.7
2022-10-25T01:44:09.326Z,18.2
2022-10-25T01:45:21.596Z,17.3
2022-10-25T01:46:28.792Z,16.1
2022-10-25T01:47:33.334Z,18.4
2022-10-25T01:48:37.992Z,17.4
2022-10-25T01:49:47.624Z,15.9
2022-10-25T01:50:59.909Z,16.9
2022-10-25T01:52:09.485Z,16.6
2022-10-25T01:53:13.713Z,18.1
2022-10-25T01:54:18.296Z,15.5
2022-10-25T01:55:22.849Z,15.3
2022-10-25T01:56:35.046Z,17.8
2022-10-25T01:57:42.204Z,16.7
2022-10-25T01:58:49.505Z,19.1
2022-10-25T02:00:04.196Z,17.1
2022-10-25T02:01:14.047Z,17.9
2022-10-25T02:02:23.542Z,15.9
2022-10-25T02:03:33.256Z,17.3
2022-10-25T02:04:40.464Z,14.8
2022-10-25T02:05:50.014Z,18.9
2022-10-25T02:07:04.897Z,17.6
2022-10-25T02:08:12.034Z,17.6
2022-10-25T02:09:26.830Z,15.3
2022-10-25T02:10:33.981Z,16.5
2022-10-25T02:11:41.112Z,17.1
2022-10-25T02:12:45.517Z,16.4
2022-10-25T02:13:49.877Z,14.9
2022-10-25T02:14:59.460Z,15.6
2022-10-25T02:16:06.860Z,13.4
2022-10-25T02:17:11.319Z,15.7
2022-10-25T02:18:15.953Z,16.6
2022-10-25T02:19:20.521Z,16
2022-10-25T02:20:25.129Z,17.5
2022-10-25T02:21:29.797Z,15.7
2022-10-25T02:22:34.336Z,16.1
2022-10-25T02:23:38.341Z,17
2022-10-25T02:24:42.536Z,17
2022-10-25T02:25:47.085Z,16.3
2022-10-25T02:26:51.048Z,16.9
2022-10-25T02:27:55.228Z,17.8
2022-10-25T02:28:59.289Z,16.9
2022-10-25T02:30:03.392Z,17.8
2022-10-25T02:31:08.093Z,18.1
2022-10-25T02:32:12.666Z,16.7
2022-10-25T02:33:16.724Z,17.2
2022-10-25T02:34:20.795Z,16
2022-10-25T02:35:25.037Z,15.9
2022-10-25T02:36:29.514Z,19.1
2022-10-25T02:37:33.556Z,15.7
2022-10-25T02:38:37.775Z,15.7
2022-10-25T02:39:42.332Z,16.8
2022-10-25T02:40:46.952Z,16.1
2022-10-25T02:41:51.610Z,16.2
2022-10-25T02:42:56.236Z,17
2022-10-25T02:44:00.620Z,17.2
2022-10-25T02:45:04.749Z,16.4
2022-10-25T02:46:09.393Z,17.7
2022-10-25T02:47:14.072Z,15.7
2022-10-25T02:48:18.586Z,18.5
2022-10-25T02:49:22.676Z,17.2
2022-10-25T02:50:27.269Z,17.2
2022-10-25T02:51:31.909Z,16.4
2022-10-25T02:52:36.665Z,17.6
2022-10-25T02:53:41.075Z,16.2
2022-10-25T02:54:45.716Z,16.1
2022-10-25T02:55:50.532Z,14.7
2022-10-25T02:56:59.948Z,16.6
2022-10-25T02:58:04.676Z,16.6
2022-10-25T02:59:09.268Z,15.1
2022-10-25T03:00:14.006Z,15.6
2022-10-25T03:01:18.567Z,16.4
2022-10-25T03:02:23.282Z,15.7
2022-10-25T03:03:27.702Z,15.7
2022-10-25T03:04:32.220Z,17.5
2022-10-25T03:05:36.777Z,15.3
2022-10-25T03:06:40.956Z,16.4
2022-10-25T03:07:45.508Z,16.7
2022-10-25T03:08:50.068Z,16.1
2022-10-25T03:09:54.567Z,14.5
2022-10-25T03:10:58.806Z,15.2
2022-10-25T03:12:03.366Z,15.5
2022-10-25T03:13:08.030Z,16
2022-10-25T03:14:12.613Z,16.9
2022-10-25T03:15:17.132Z,17.7
2022-10-25T03:16:21.796Z,16.2
2022-10-25T03:17:26.338Z,15.7
2022-10-25T03:18:30.416Z,16.8
2022-10-25T03:19:35.082Z,16.7
2022-10-25T03:20:39.734Z,16.4
2022-10-25T03:21:44.278Z,17.3
2022-10-25T03:22:48.900Z,16.1
2022-10-25T03:23:53.378Z,14.5
2022-10-25T03:24:57.635Z,14.2
2022-10-25T03:26:02.098Z,16.7
2022-10-25T03:27:06.738Z,16.9
2022-10-25T03:28:11.279Z,15.1
2022-10-25T03:29:15.375Z,15.9
2022-10-25T03:30:20.050Z,16.4
2022-10-25T03:31:24.674Z,15.9
2022-10-25T03:32:29.158Z,16.5
2022-10-25T03:33:33.276Z,15.4
2022-10-25T03:34:37.859Z,18.5
2022-10-25T03:35:42.505Z,16.7
2022-10-25T03:36:46.968Z,16.2
2022-10-25T03:37:51.090Z,13.4
2022-10-25T03:38:55.678Z,16
2022-10-25T03:40:00.280Z,15.2
2022-10-25T03:41:04.963Z,15.1
2022-10-25T03:42:09.475Z,15.9
2022-10-25T03:43:14.139Z,14.4
2022-10-25T03:44:18.699Z,15.3
2022-10-25T03:45:23.252Z,17
2022-10-25T03:46:27.934Z,17.1
2022-10-25T03:47:32.459Z,15.9
2022-10-25T03:48:36.961Z,15
2022-10-25T03:49:41.014Z,13.2
2022-10-25T03:50:45.254Z,15.3
2022-10-25T03:51:51.096Z,13.8
2022-10-25T03:52:53.779Z,14
2022-10-25T03:53:57.926Z,13.2
2022-10-25T03:55:02.020Z,14.1
2022-10-25T03:56:06.763Z,15.4
2022-10-25T03:57:11.298Z,16.4
2022-10-25T03:58:16.047Z,17.2
2022-10-25T03:59:20.724Z,14.8
2022-10-25T04:00:25.120Z,12.8
2022-10-25T04:01:29.872Z,14.7
2022-10-25T04:02:34.298Z,17.2
2022-10-25T04:03:38.740Z,14.7
2022-10-25T04:04:43.468Z,16
2022-10-25T04:05:48.011Z,17.8
2022-10-25T04:06:52.498Z,14.5
2022-10-25T04:07:56.614Z,14.5
2022-10-25T04:09:00.606Z,15.3
2022-10-25T04:10:04.934Z,16.8
2022-10-25T04:11:09.702Z,15.1
2022-10-25T04:12:14.149Z,13.6
2022-10-25T04:13:18.650Z,14.7
2022-10-25T04:14:22.806Z,13.1
2022-10-25T04:15:27.390Z,13.4
2022-10-25T04:16:32.065Z,15.3
2022-10-25T04:17:36.542Z,14.8
2022-10-25T04:18:40.654Z,14.2
2022-10-25T04:19:45.318Z,13.1
2022-10-25T04:20:49.775Z,14.1
2022-10-25T04:21:54.071Z,13.8
2022-10-25T04:22:58.518Z,13.1
2022-10-25T04:24:03.575Z,15
2022-10-25T04:25:06.866Z,15.2
2022-10-25T04:26:11.339Z,15.5
2022-10-25T04:27:15.894Z,14.5
2022-10-25T04:28:20.162Z,15.6
2022-10-25T04:29:24.772Z,15.4
2022-10-25T04:30:29.127Z,15.1
2022-10-25T04:31:33.218Z,14.9
2022-10-25T04:32:37.422Z,14.7
2022-10-25T04:33:44.010Z,16.4
2022-10-25T04:34:49.066Z,14.4
2022-10-25T04:35:53.518Z,14.7
2022-10-25T04:36:57.594Z,14.6
2022-10-25T04:38:01.766Z,16.6
2022-10-25T04:39:05.935Z,14.2
2022-10-25T04:40:10.505Z,15.9
2022-10-25T04:41:15.094Z,14.1
2022-10-25T04:42:19.246Z,15.2
2022-10-25T04:43:24.029Z,15.9
2022-10-25T04:44:28.474Z,14.4
2022-10-25T04:45:33.046Z,15
2022-10-25T04:46:37.562Z,12.6
2022-10-25T04:47:41.686Z,13.4
2022-10-25T04:48:46.158Z,13.9
2022-10-25T04:49:50.386Z,12.4
2022-10-25T04:50:55.312Z,13.5
2022-10-25T04:51:59.472Z,14.6
2022-10-25T04:53:03.774Z,12.9
2022-10-25T04:54:08.190Z,12.1
2022-10-25T04:55:12.394Z,14.3
2022-10-25T04:56:17.214Z,11.6
2022-10-25T04:57:21.666Z,12.2
2022-10-25T04:58:27.495Z,15.1
2022-10-25T04:59:30.954Z,15.6
2022-10-25T05:00:35.426Z,12.9
2022-10-25T05:01:40.093Z,14.4
2022-10-25T05:02:45.283Z,13.7
2022-10-25T05:03:49.174Z,15
2022-10-25T05:04:53.938Z,15.7
2022-10-25T05:05:58.254Z,15.6
2022-10-25T05:07:10.047Z,13.9
2022-10-25T05:08:14.090Z,13.6
2022-10-25T05:09:18.666Z,13.2
2022-10-25T05:10:22.758Z,13.6
2022-10-25T05:11:27.090Z,14.2
2022-10-25T05:12:31.586Z,14.8
2022-10-25T05:13:36.306Z,16.1
2022-10-25T05:16:27.485Z,13.5
2022-10-25T05:17:31.566Z,12.1
2022-10-25T05:18:35.646Z,15.4
2022-10-25T05:19:39.814Z,13.9
2022-10-25T05:20:48.538Z,14.5
2022-10-25T05:21:55.783Z,13
2022-10-25T05:23:00.297Z,14.3
2022-10-25T05:24:04.814Z,16.8
2022-10-25T05:25:09.175Z,14.8
2022-10-25T05:30:12.756Z,14.8
2022-10-25T05:32:19.316Z,14.8
2022-10-25T05:34:59.455Z,15.6
2022-10-25T05:36:04.272Z,14
2022-10-25T05:37:08.811Z,18
2022-10-25T05:38:13.306Z,13.9
2022-10-25T05:39:44.538Z,13.9
2022-10-25T05:40:49.919Z,20.3
2022-10-25T05:41:55.325Z,16.4
2022-10-25T05:42:59.798Z,14.3
2022-10-25T05:44:04.774Z,15.1
2022-10-25T05:45:10.734Z,17.7
2022-10-25T05:46:15.654Z,16.7
2022-10-25T05:47:23.553Z,16.8
2022-10-25T05:48:27.818Z,17.4
2022-10-25T05:49:33.058Z,15.6
2022-10-25T05:51:08.301Z,14.3
2022-10-25T05:52:12.102Z,16.8
2022-10-25T05:53:16.639Z,15.5
2022-10-25T05:54:21.305Z,15.8
2022-10-25T05:55:25.990Z,15.9
2022-10-25T06:04:10.968Z,15.9
2022-10-25T06:06:17.462Z,15.9
2022-10-25T06:12:28.695Z,15.3
2022-10-25T06:13:32.854Z,15.7
2022-10-25T06:14:37.258Z,20.5
2022-10-25T06:15:41.532Z,16.4
2022-10-25T06:21:06.674Z,17.2
2022-10-25T06:22:11.110Z,17.3
2022-10-25T06:24:17.385Z,17.3
2022-10-25T06:28:41.495Z,17.3
2022-10-25T06:41:05.509Z,16
2022-10-25T06:42:51.918Z,16
2022-10-25T06:43:56.387Z,15.1
2022-10-25T07:21:02.668Z,14.5
2022-10-25T07:23:14.007Z,14.5
2022-10-25T07:27:37.465Z,14.5
2022-10-25T07:29:44.325Z,14.5
2022-10-25T07:44:34.283Z,12.6
2022-10-25T07:46:40.825Z,12.6
2022-10-25T07:49:32.558Z,17.3
2022-10-25T07:50:36.761Z,12.6
2022-10-25T07:51:41.349Z,12.9
2022-10-25T07:52:45.864Z,14.8
2022-10-25T07:53:59.545Z,14.2
2022-10-25T07:55:03.878Z,14.4
2022-10-25T07:56:08.414Z,13.4
2022-10-25T07:57:13.154Z,14.2
2022-10-25T07:58:17.678Z,12.9
2022-10-25T08:00:38.468Z,14.4
2022-10-25T08:01:42.776Z,11.8
2022-10-25T08:02:47.285Z,15.7
2022-10-25T08:03:51.709Z,13
2022-10-25T08:06:22.334Z,12.8
2022-10-25T08:07:27.268Z,13.6
2022-10-25T08:08:32.102Z,12.9
2022-10-25T08:09:38.702Z,14.4
2022-10-25T08:10:53.561Z,14.3
2022-10-25T08:11:57.884Z,12.6
2022-10-25T08:13:02.129Z,13.7
2022-10-25T08:14:06.789Z,13.7
2022-10-25T08:15:11.270Z,14.8
2022-10-25T08:16:18.671Z,15.1
2022-10-25T08:17:23.114Z,14.6
2022-10-25T08:18:28.346Z,13.8
2022-10-25T08:19:32.824Z,14.2
2022-10-25T08:21:00.409Z,13.4
2022-10-25T08:21:46.825Z,14.1
2022-10-25T08:22:51.033Z,12.3
2022-10-25T08:23:58.235Z,16.9
2022-10-25T08:25:03.010Z,14.6
2022-10-25T08:26:07.489Z,14.2
2022-10-25T08:27:21.561Z,14.8
2022-10-25T08:28:26.345Z,15.8
2022-10-25T08:29:33.461Z,16
2022-10-25T08:30:37.937Z,15.6
2022-10-25T08:31:42.143Z,13.7
2022-10-25T08:34:12.665Z,13.3
2022-10-25T08:35:16.736Z,14.7
2022-10-25T08:36:21.701Z,13.7
2022-10-25T08:37:26.021Z,13.1
2022-10-25T08:39:58.646Z,16.6
2022-10-25T08:41:03.373Z,15.8
2022-10-25T08:42:12.934Z,15.8
2022-10-25T08:43:19.736Z,12.9
2022-10-25T08:44:36.601Z,16.3
2022-10-25T08:45:47.161Z,16.9
2022-10-25T08:47:00.904Z,17.3
2022-10-25T08:48:13.929Z,18.3
2022-10-25T08:49:18.026Z,18.4
2022-10-25T08:50:22.572Z,18.7
2022-10-25T08:52:37.078Z,18.7
2022-10-25T08:53:43.099Z,14.6
2022-10-25T08:54:47.593Z,15.1
2022-10-25T08:57:15.671Z,14.3
2022-10-25T08:58:19.303Z,13.5
2022-10-25T08:59:34.034Z,14.5
2022-10-25T09:00:38.553Z,13.4
2022-10-25T09:01:44.772Z,13.5
2022-10-25T09:02:48.732Z,13.6
2022-10-25T09:03:52.888Z,11.8
2022-10-25T09:04:57.308Z,12.2
2022-10-25T09:06:01.449Z,13.6
2022-10-25T09:07:26.701Z,12.9
2022-10-25T09:08:38.725Z,12
2022-10-25T09:09:45.853Z,14.9
2022-10-25T09:10:50.026Z,14.6
2022-10-25T09:12:04.792Z,14.3
2022-10-25T09:13:19.461Z,13.3
2022-10-25T09:14:34.342Z,16.5
2022-10-25T09:15:49.073Z,13.4
2022-10-25T09:17:01.303Z,12
2022-10-25T09:18:11.513Z,13.6
2022-10-25T09:19:15.489Z,10.5
2022-10-25T09:20:30.321Z,12.5
2022-10-25T09:21:34.389Z,12.3
2022-10-25T09:22:44.605Z,12
2022-10-25T09:23:48.714Z,13.1
2022-10-25T09:25:01.439Z,12.4
2022-10-25T09:26:08.475Z,14.1
2022-10-25T09:27:17.825Z,14.1
2022-10-25T09:28:29.897Z,11.6
2022-10-25T09:29:44.749Z,12.1
2022-10-25T09:30:56.861Z,13.4
2022-10-25T09:32:01.016Z,13
2022-10-25T09:34:57.521Z,15.5
2022-10-25T09:36:01.780Z,12.5
2022-10-25T09:37:06.346Z,12.1
2022-10-25T09:38:10.956Z,12.4
2022-10-25T09:41:19.397Z,12.7
2022-10-25T09:42:26.633Z,18
2022-10-25T09:43:31.233Z,15.9
2022-10-25T09:45:42.573Z,15.9
2022-10-25T09:46:49.545Z,13.8
2022-10-25T09:47:59.337Z,17.2
2022-10-25T09:49:06.476Z,16.5
2022-10-25T09:50:10.668Z,15
2022-10-25T09:51:25.436Z,17.4
2022-10-25T09:52:34.960Z,14.3
2022-10-25T09:53:49.768Z,13.1
2022-10-25T09:54:53.848Z,14.6
2022-10-25T09:56:03.501Z,13.9
2022-10-25T09:57:07.528Z,12.2
2022-10-25T09:58:11.825Z,13.3
2022-10-25T09:59:21.460Z,12.9
2022-10-25T10:00:27.576Z,14.1
2022-10-25T10:02:34.374Z,14.1
2022-10-25T10:04:40.890Z,14.1
2022-10-25T10:05:49.597Z,11
2022-10-25T10:06:53.953Z,12.7
2022-10-25T10:07:58.197Z,9.8
2022-10-25T10:09:02.752Z,9.6
2022-10-25T10:10:07.388Z,11.2
2022-10-25T10:11:16.856Z,11
2022-10-25T10:12:21.048Z,11.4
2022-10-25T10:13:28.209Z,11.7
2022-10-25T10:14:43.073Z,14.9
2022-10-25T10:15:52.762Z,14.7
2022-10-25T10:18:19.633Z,10.7
2022-10-25T10:19:29.270Z,10.7
2022-10-25T10:20:33.505Z,11.4
2022-10-25T10:21:38.660Z,13.3
2022-10-25T10:24:01.937Z,12.2
2022-10-25T10:25:06.540Z,11.2
2022-10-25T10:26:10.755Z,13.8
2022-10-25T10:29:23.854Z,11
2022-10-25T10:30:28.049Z,9.6
2022-10-25T10:31:32.116Z,9.9
2022-10-25T10:32:36.328Z,11.1
2022-10-25T10:33:44.588Z,9.9
2022-10-25T10:35:51.176Z,9.9
2022-10-25T10:37:57.784Z,9.9
2022-10-25T10:39:26.580Z,9.5
2022-10-25T10:40:30.783Z,10.8
2022-10-25T10:41:35.347Z,13.5
2022-10-25T10:42:39.429Z,11.9
2022-10-25T10:43:43.576Z,12.7
2022-10-25T10:46:05.876Z,10.8
2022-10-25T10:47:10.108Z,11.9
2022-10-25T10:48:14.592Z,11.2
2022-10-25T10:49:18.624Z,11.8
2022-10-25T10:52:48.531Z,11.5
2022-10-25T10:53:58.044Z,12.5
2022-10-25T10:55:12.789Z,13.6
2022-10-25T10:56:33.608Z,11.8
2022-10-25T10:57:39.620Z,12.1
2022-10-25T10:58:43.848Z,10.6
2022-10-25T10:59:51.073Z,13.4
2022-10-25T11:00:55.456Z,9.9
2022-10-25T11:02:00.886Z,11.1
2022-10-25T11:03:15.352Z,10.4
2022-10-25T11:04:30.113Z,12.1
2022-10-25T11:05:34.229Z,12.1
2022-10-25T11:06:38.836Z,11.8
2022-10-25T11:07:56.561Z,9.2
2022-10-25T11:09:00.764Z,9.8
2022-10-25T11:10:10.355Z,11.1
2022-10-25T11:11:17.676Z,9.2
2022-10-25T11:12:22.141Z,13.5
2022-10-25T11:13:30.572Z,12.7
2022-10-25T11:14:35.051Z,9.7
2022-10-25T11:15:39.619Z,9.7
2022-10-25T11:16:54.181Z,9.3
2022-10-25T11:18:03.866Z,9.6
2022-10-25T11:19:21.632Z,10.4
2022-10-25T11:21:33.204Z,10.4
2022-10-25T11:23:44.848Z,10.4
2022-10-25T11:26:25.609Z,6.5
2022-10-25T11:27:34.315Z,5.6
2022-10-25T11:28:47.021Z,7.8
2022-10-25T11:29:59.312Z,4.6
2022-10-25T11:31:08.979Z,7.4
2022-10-25T11:32:23.940Z,5.6
2022-10-25T11:33:35.904Z,6
2022-10-25T11:34:50.800Z,7.2
2022-10-25T11:36:03.583Z,8.6
2022-10-25T11:37:13.184Z,7.2
2022-10-25T11:38:17.255Z,6.1
2022-10-25T11:39:32.251Z,4.9
2022-10-25T11:40:46.993Z,6.1
2022-10-25T11:42:01.645Z,5.3
2022-10-25T11:43:13.368Z,7.4
2022-10-25T11:44:18.060Z,6.4
2022-10-25T11:45:25.632Z,6
2022-10-25T11:48:09.304Z,7.3
2022-10-25T11:49:24.141Z,6.1
2022-10-25T11:50:36.908Z,5.9
2022-10-25T11:51:46.648Z,6.8
2022-10-25T11:52:58.896Z,6.5
2022-10-25T11:54:10.968Z,5.5
2022-10-25T11:55:18.195Z,6
2022-10-25T11:56:27.853Z,5.4
2022-10-25T11:57:38.877Z,6.7
2022-10-25T11:58:45.584Z,6.2
2022-10-25T12:00:00.412Z,5.8
2022-10-25T12:01:10.117Z,6.3
2022-10-25T12:02:20.667Z,7.4
2022-10-25T12:03:35.143Z,6.1
2022-10-25T12:04:50.076Z,6.9
2022-10-25T12:05:59.557Z,7
2022-10-25T12:07:19.599Z,5.8
2022-10-25T12:08:32.173Z,5.8
2022-10-25T12:09:41.835Z,5.9
2022-10-25T12:10:48.969Z,5.7
2022-10-25T12:11:53.104Z,6
2022-10-25T12:13:02.908Z,6.9
2022-10-25T12:14:17.563Z,5.5
2022-10-25T12:15:24.136Z,6.4
2022-10-25T12:16:37.230Z,7.7
2022-10-25T12:17:41.536Z,5.5
2022-10-25T12:18:45.635Z,5.3
2022-10-25T12:19:50.243Z,7.4
2022-10-25T12:20:54.780Z,6.1
2022-10-25T12:22:00.829Z,6.4
2022-10-25T12:23:06.467Z,5.1
2022-10-25T12:24:11.083Z,6.6
2022-10-25T12:25:21.315Z,6
2022-10-25T12:26:31.028Z,4.3
2022-10-25T12:27:35.575Z,6.1
2022-10-25T12:28:39.818Z,6.8
2022-10-25T12:29:46.760Z,8
2022-10-25T12:30:53.950Z,7.3
2022-10-25T12:32:00.640Z,6.7
2022-10-25T12:33:05.608Z,6.1
2022-10-25T12:34:15.068Z,6
2022-10-25T12:35:19.451Z,7
2022-10-25T12:36:23.599Z,6.6
2022-10-25T12:37:35.828Z,7.8
2022-10-25T12:38:40.419Z,6.8
2022-10-25T12:39:44.455Z,5.9
2022-10-25T12:40:48.851Z,5.2
2022-10-25T12:41:54.824Z,6.1
2022-10-25T12:42:59.211Z,4.4
2022-10-25T12:44:06.784Z,5.2
2022-10-25T12:45:16.335Z,4
2022-10-25T12:46:31.300Z,6.4
2022-10-25T12:47:47.819Z,6.4
2022-10-25T12:49:00.040Z,6.2
2022-10-25T12:50:12.182Z,5.5
2022-10-25T12:51:21.320Z,5.3
2022-10-25T12:52:36.094Z,6.4
2022-10-25T12:53:40.315Z,6.8
2022-10-25T12:54:50.036Z,7.3
2022-10-25T12:56:04.688Z,7.4
2022-10-25T12:57:14.376Z,6.1
2022-10-25T12:58:23.879Z,7.4
2022-10-25T12:59:33.416Z,6.2
2022-10-25T13:00:43.322Z,6.6
2022-10-25T13:01:52.728Z,5.4
2022-10-25T13:03:05.008Z,5
2022-10-25T13:04:14.657Z,6
2022-10-25T13:05:29.439Z,6.3
2022-10-25T13:06:36.819Z,5.2
2022-10-25T13:07:41.520Z,6.7
2022-10-25T13:08:46.915Z,6.1
2022-10-25T13:09:51.516Z,6.3
2022-10-25T13:10:56.248Z,9.1
2022-10-25T13:12:00.837Z,7.5
2022-10-25T13:13:07.891Z,6.5
2022-10-25T13:14:17.670Z,5.3
2022-10-25T13:15:32.384Z,6.2
2022-10-25T13:16:41.606Z,7.3
2022-10-25T13:17:46.155Z,7.2
2022-10-25T13:19:00.775Z,6.6
2022-10-25T13:20:13.250Z,6.3
2022-10-25T13:21:23.667Z,8
2022-10-25T13:22:37.885Z,8.6
2022-10-25T13:23:40.629Z,9.4
2022-10-25T13:24:47.923Z,9
2022-10-25T13:25:52.529Z,7.6
2022-10-25T13:26:57.051Z,7.1
2022-10-25T13:28:11.831Z,5.4
2022-10-25T13:29:15.859Z,8.9
2022-10-25T13:30:31.845Z,8.6
2022-10-25T13:31:35.356Z,7.5
2022-10-25T13:32:42.591Z,7.4
2022-10-25T13:33:47.501Z,8.2
2022-10-25T13:34:51.784Z,7.3
2022-10-25T13:35:56.757Z,7.1
2022-10-25T13:37:01.360Z,8.2
2022-10-25T13:38:05.724Z,9.1
2022-10-25T13:39:10.036Z,8.8
2022-10-25T13:41:22.807Z,8.1
2022-10-25T13:42:26.894Z,8.5
2022-10-25T13:43:37.199Z,8.9
2022-10-25T13:44:51.884Z,6.7
2022-10-25T13:46:04.117Z,5.4
2022-10-25T13:47:08.318Z,6.4
2022-10-25T13:48:23.115Z,5.9
2022-10-25T13:49:30.210Z,7.8
2022-10-25T13:50:34.306Z,7.2
2022-10-25T13:51:45.643Z,5.6
2022-10-25T13:52:50.496Z,6.8
2022-10-25T13:54:00.721Z,7.2
2022-10-25T13:55:05.032Z,5.7
2022-10-25T13:56:09.592Z,6.8
2022-10-25T13:57:21.816Z,8.2
2022-10-25T13:58:36.651Z,11.2
2022-10-25T13:59:40.779Z,7.2
2022-10-25T14:00:49.355Z,6.4
2022-10-25T14:01:52.572Z,8.4
2022-10-25T14:02:56.529Z,7.7
2022-10-25T14:04:08.699Z,6.3
2022-10-25T14:05:23.681Z,9.2
2022-10-25T14:06:33.295Z,7.5
2022-10-25T14:07:37.803Z,6.7
2022-10-25T14:08:42.031Z,7.3
2022-10-25T14:09:51.623Z,6.4
2022-10-25T14:10:55.716Z,7.8
2022-10-25T14:12:11.162Z,7.2
2022-10-25T14:13:12.039Z,4.8
2022-10-25T14:14:16.248Z,6.6
2022-10-25T14:15:38.291Z,8.7
2022-10-25T14:16:52.887Z,11.1
2022-10-25T14:18:05.267Z,12.1
2022-10-25T14:19:09.691Z,8
2022-10-25T14:20:19.999Z,7
2022-10-25T14:21:30.150Z,7.3
2022-10-25T14:22:34.351Z,6.5
2022-10-25T14:23:44.127Z,6.1
2022-10-25T14:24:48.579Z,5.4
2022-10-25T14:25:52.742Z,8.8
2022-10-25T14:26:56.899Z,6.8
2022-10-25T14:28:03.679Z,7.8
2022-10-25T14:29:13.219Z,6.9
2022-10-25T14:31:29.668Z,7.8
2022-10-25T14:32:34.174Z,7.1
2022-10-25T14:33:41.025Z,7.2
2022-10-25T14:34:52.983Z,5.9
2022-10-25T14:35:57.051Z,5.6
2022-10-25T14:37:06.355Z,7.7
2022-10-25T14:38:10.408Z,6.5
2022-10-25T14:39:14.559Z,6.8
2022-10-25T14:40:18.587Z,7.5
2022-10-25T14:41:23.661Z,9.1
2022-10-25T14:42:32.844Z,6.7
2022-10-25T14:43:37.594Z,7.4
2022-10-25T14:44:42.271Z,6.9
2022-10-25T14:45:46.903Z,7.1
2022-10-25T14:46:59.000Z,7.4
2022-10-25T14:48:03.067Z,10.2
2022-10-25T14:49:10.266Z,8.2
2022-10-25T14:50:14.426Z,7.5
2022-10-25T14:51:18.507Z,8.6
2022-10-25T14:52:25.815Z,8.4
2022-10-25T14:53:30.311Z,6.9
2022-10-25T14:54:35.602Z,7.1
2022-10-25T14:55:40.083Z,7.2
2022-10-25T14:56:49.683Z,7.5
2022-10-25T14:57:58.719Z,7.6
2022-10-25T14:59:03.002Z,9.1
2022-10-25T15:00:07.647Z,7.2
2022-10-25T15:01:17.884Z,6.7
2022-10-25T15:02:21.895Z,7.5
2022-10-25T15:03:29.700Z,7.8
2022-10-25T15:04:34.220Z,8.6
2022-10-25T15:05:39.652Z,8.7
2022-10-25T15:06:44.011Z,11.6
2022-10-25T15:07:48.550Z,9.4
2022-10-25T15:09:05.247Z,10.8
2022-10-25T15:09:59.962Z,8.4
2022-10-25T15:11:06.748Z,9
2022-10-25T15:12:10.087Z,12.3
2022-10-25T15:13:14.199Z,12.4
2022-10-25T15:14:25.831Z,12
2022-10-25T15:15:30.390Z,12.2
2022-10-25T15:16:39.723Z,20.5
2022-10-25T15:17:43.832Z,15.2
2022-10-25T15:18:50.937Z,13.4
2022-10-25T15:20:03.137Z,12.8
2022-10-25T15:21:12.902Z,14.1
2022-10-25T15:22:16.971Z,12.7
2022-10-25T15:23:21.071Z,10.6
2022-10-25T15:24:25.163Z,11.3
2022-10-25T15:25:30.647Z,13.7
2022-10-25T15:26:36.860Z,12.2
2022-10-25T15:27:39.100Z,11.2
2022-10-25T15:28:43.652Z,10.9
2022-10-25T15:30:55.614Z,10.2
2022-10-25T15:32:00.027Z,10.2
2022-10-25T15:33:04.511Z,11.1
2022-10-25T15:34:11.227Z,11.4
2022-10-25T15:35:15.592Z,10.8
2022-10-25T15:36:21.587Z,11.5
2022-10-25T15:37:26.188Z,11
2022-10-25T15:38:42.309Z,10.6
2022-10-25T15:39:35.278Z,10.9
2022-10-25T15:40:39.359Z,12.7
2022-10-25T15:41:49.687Z,12.3
2022-10-25T15:42:54.160Z,13
2022-10-25T15:43:58.231Z,12
2022-10-25T15:45:02.313Z,15.6
2022-10-25T15:46:08.611Z,14.4
2022-10-25T15:47:26.651Z,15.6
2022-10-25T15:48:33.939Z,13.4
2022-10-25T15:49:38.064Z,14.7
2022-10-25T15:50:42.196Z,15.2
2022-10-25T15:51:52.083Z,17
2022-10-25T15:53:07.715Z,18.5
2022-10-25T15:54:12.203Z,17
2022-10-25T15:55:16.423Z,15.1
2022-10-25T15:56:23.514Z,17.5
2022-10-25T15:57:27.819Z,15.9
2022-10-25T15:58:34.711Z,16.7
2022-10-25T15:59:38.883Z,21
2022-10-25T16:00:45.668Z,23.9
2022-10-25T16:01:50.276Z,29.3
2022-10-25T16:02:54.807Z,22.9
2022-10-25T16:04:04.701Z,21.8
2022-10-25T16:05:09.035Z,21.6
2022-10-25T16:08:14.283Z,19.7
2022-10-25T16:09:50.394Z,19.7
2022-10-25T16:10:54.615Z,16.6
2022-10-25T16:11:59.127Z,17.8
2022-10-25T16:14:16.998Z,17.7
2022-10-25T16:15:26.843Z,18
2022-10-25T16:16:45.837Z,19.7
2022-10-25T16:17:36.075Z,18.3
2022-10-25T16:20:01.113Z,20.9
2022-10-25T16:21:18.587Z,15.3
2022-10-25T16:22:22.838Z,16.9
2022-10-25T16:23:26.936Z,16.8
2022-10-25T16:24:32.650Z,18.4
2022-10-25T16:25:37.274Z,16.3
2022-10-25T16:26:52.675Z,18.9
2022-10-25T16:27:57.083Z,16.4
2022-10-25T16:29:01.307Z,16.8
2022-10-25T16:30:10.706Z,16.2
2022-10-25T16:31:18.024Z,19.4
2022-10-25T16:32:32.654Z,17.4
2022-10-25T16:33:36.963Z,16.6
2022-10-25T16:34:40.974Z,17.3
2022-10-25T16:37:41.362Z,18.9
2022-10-25T16:38:46.179Z,18.6
2022-10-25T16:39:50.486Z,22.2
2022-10-25T16:40:54.895Z,22
2022-10-25T16:42:02.605Z,20.8
2022-10-25T16:43:07.814Z,19.9
2022-10-25T16:44:12.446Z,19.7
2022-10-25T16:45:17.066Z,18.1
2022-10-25T16:46:25.010Z,20.2
2022-10-25T16:49:32.531Z,20.5
2022-10-25T16:50:36.911Z,22.9
2022-10-25T16:51:41.102Z,25
2022-10-25T16:52:45.865Z,31.8
2022-10-25T16:55:52.782Z,48.4
2022-10-25T16:56:57.035Z,50.9
2022-10-25T16:58:01.510Z,52.6
2022-10-25T16:59:06.158Z,50.7
2022-10-25T17:00:10.606Z,37.8
2022-10-25T17:01:17.852Z,35.9
2022-10-25T17:02:22.035Z,32.3
2022-10-25T17:03:26.239Z,30.9
2022-10-25T17:04:30.778Z,32.9
2022-10-25T17:05:38.614Z,30.4
2022-10-25T17:06:43.116Z,33.4
2022-10-25T17:07:47.571Z,31.5
2022-10-25T17:08:52.134Z,39.8
2022-10-25T17:09:56.331Z,36.8
2022-10-25T17:12:36.666Z,39
2022-10-25T17:13:46.210Z,37.8
2022-10-25T17:14:50.422Z,37.9
2022-10-25T17:15:54.942Z,37.9
2022-10-25T17:17:02.237Z,36.7
2022-10-25T17:19:06.223Z,36.7
2022-10-25T17:20:46.357Z,36.7
2022-10-25T17:21:50.621Z,36.7
2022-10-25T17:22:55.657Z,38.8
2022-10-25T17:24:00.356Z,39.6
2022-10-25T17:25:04.841Z,41.3
2022-10-25T17:26:15.770Z,44.1
2022-10-25T17:27:20.254Z,43.5
2022-10-25T17:29:38.277Z,43.4